Time;durP1;ratioP1;P1;durP2;ratioP2;P2;SDS_P1;SDS_P2;PMS_P1;PMS_P2;Temp;Humidity;BMP_temperature;BMP_pressure;BME280_temperature;BME280_humidity;BME280_pressure;Samples;Min_cycle;Max_cycle;Signal;HPM_P1;HPM_P2
2021/12/07 00:01:56;;;;;;;52.65;25.77;;;;;;;;;;6080563;23;20432;-96
2021/12/07 00:04:22;;;;;;;59.72;28.67;;;;;;;;;;6102562;23;20023;-96
2021/12/07 00:06:48;;;;;;;56.95;28.05;;;;;;;;;;6102656;23;20018;-96
2021/12/07 00:09:15;;;;;;;60.83;28.55;;;;;;;;;;6054592;23;20412;-96
2021/12/07 00:11:41;;;;;;;55.25;25.88;;;;;;;;;;6055730;23;20459;-96
2021/12/07 00:14:21;;;;;;;59.10;27.02;;;;;;;;;;6058911;23;20029;-96
2021/12/07 00:16:48;;;;;;;58.83;25.70;;;;;;;;;;6066262;23;20018;-96
2021/12/07 00:19:14;;;;;;;50.83;25.02;;;;;;;;;;6067017;23;20023;-96
2021/12/07 00:21:41;;;;;;;44.80;22.27;;;;;;;;;;6117297;23;20029;-96
2021/12/07 00:24:07;;;;;;;48.67;24.20;;;;;;;;;;6114501;23;20018;-96
2021/12/07 00:26:34;;;;;;;50.13;23.58;;;;;;;;;;6062801;23;20023;-96
2021/12/07 00:29:02;;;;;;;50.70;24.63;;;;;;;;;;6064940;23;20030;-96
2021/12/07 00:31:35;;;;;;;54.22;25.13;;;;;;;;;;6063199;23;20025;-96
2021/12/07 00:36:37;;;;;;;53.75;26.50;;;;;;;;;;6105194;23;20050;-96
2021/12/07 00:39:07;;;;;;;55.05;26.52;;;;;;;;;;6054471;23;20097;-96
2021/12/07 00:41:33;;;;;;;50.45;23.80;;;;;;;;;;6103600;23;20025;-96
2021/12/07 00:44:01;;;;;;;49.90;25.08;;;;;;;;;;6104221;23;20025;-96
2021/12/07 00:46:27;;;;;;;59.47;25.90;;;;;;;;;;6076926;23;20049;-96
2021/12/07 00:48:53;;;;;;;57.97;26.95;;;;;;;;;;6054219;23;20018;-96
2021/12/07 00:51:19;;;;;;;63.33;27.20;;;;;;;;;;6053639;23;20018;-96
2021/12/07 00:53:45;;;;;;;58.22;26.63;;;;;;;;;;6052798;23;20054;-96
2021/12/07 00:56:12;;;;;;;72.82;29.08;;;;;;;;;;6050629;23;20022;-96
2021/12/07 00:58:38;;;;;;;77.03;30.83;;;;;;;;;;6052730;23;20014;-96
2021/12/07 01:01:08;;;;;;;72.53;28.85;;;;;;;;;;6057067;23;20030;-96
2021/12/07 01:03:36;;;;;;;71.43;29.50;;;;;;;;;;6063184;23;20037;-96
2021/12/07 01:25:25;;;;;;;63.88;27.23;;;;;;;;;;6040342;23;20023;-96
2021/12/07 01:27:52;;;;;;;65.90;26.65;;;;;;;;;;5990688;23;20031;-96
2021/12/07 01:30:30;;;;;;;63.90;25.88;;;;;;;;;;5991697;23;20026;-96
2021/12/07 01:33:11;;;;;;;67.40;25.30;;;;;;;;;;5993674;23;20038;-96
2021/12/07 01:46:33;;;;;;;59.03;24.65;;;;;;;;;;6049716;23;20026;-96
2021/12/07 01:59:33;;;;;;;55.38;24.15;;;;;;;;;;6069711;23;20018;-96
2021/12/07 02:02:01;;;;;;;53.17;23.50;;;;;;;;;;6045488;23;20022;-96
2021/12/07 02:04:27;;;;;;;56.60;23.73;;;;;;;;;;6045214;23;20023;-95
2021/12/07 02:06:53;;;;;;;57.65;23.63;;;;;;;;;;6045464;23;20027;-96
2021/12/07 02:09:19;;;;;;;52.47;21.90;;;;;;;;;;6046529;23;20025;-96
2021/12/07 02:11:48;;;;;;;50.00;22.73;;;;;;;;;;6047811;23;20110;-96
2021/12/07 02:14:18;;;;;;;52.53;23.20;;;;;;;;;;6050701;23;20023;-96
2021/12/07 02:16:48;;;;;;;51.63;24.00;;;;;;;;;;6047279;23;20110;-96
2021/12/07 02:19:14;;;;;;;49.20;23.13;;;;;;;;;;6047957;23;20018;-96
2021/12/07 02:21:41;;;;;;;54.28;22.45;;;;;;;;;;6049487;23;20482;-96
2021/12/07 02:24:07;;;;;;;48.50;23.02;;;;;;;;;;6047781;23;20023;-96
2021/12/07 02:26:33;;;;;;;51.90;23.15;;;;;;;;;;6046607;23;20027;-96
2021/12/07 02:29:00;;;;;;;55.63;25.20;;;;;;;;;;6046297;23;20018;-96
2021/12/07 02:31:26;;;;;;;54.53;24.58;;;;;;;;;;6047025;23;20014;-96
2021/12/07 02:33:54;;;;;;;48.60;22.35;;;;;;;;;;6046898;23;20061;-96
2021/12/07 02:36:20;;;;;;;51.70;22.83;;;;;;;;;;6049159;23;20107;-96
2021/12/07 02:38:46;;;;;;;51.03;23.40;;;;;;;;;;6047872;23;20021;-96
2021/12/07 02:41:12;;;;;;;50.47;23.45;;;;;;;;;;6049642;23;20475;-96
2021/12/07 02:43:38;;;;;;;47.40;23.15;;;;;;;;;;6049158;23;20024;-96
2021/12/07 02:46:04;;;;;;;52.42;23.05;;;;;;;;;;6050366;23;20101;-96
2021/12/07 02:48:30;;;;;;;54.22;23.20;;;;;;;;;;6052429;23;20018;-96
2021/12/07 02:51:00;;;;;;;50.38;23.17;;;;;;;;;;6083202;23;20459;-96
2021/12/07 02:53:29;;;;;;;51.33;23.02;;;;;;;;;;6090141;23;20022;-96
2021/12/07 02:55:57;;;;;;;49.95;22.50;;;;;;;;;;6066260;23;20023;-96
2021/12/07 02:58:42;;;;;;;49.67;22.95;;;;;;;;;;6112983;23;20080;-96
2021/12/07 03:01:13;;;;;;;48.72;22.35;;;;;;;;;;6063593;23;20025;-96
2021/12/07 03:04:33;;;;;;;47.70;22.63;;;;;;;;;;6061083;23;20423;-96
2021/12/07 03:07:03;;;;;;;50.00;22.02;;;;;;;;;;6103418;23;20034;-96
2021/12/07 03:09:58;;;;;;;46.92;22.13;;;;;;;;;;6061932;23;20025;-96
2021/12/07 03:27:22;;;;;;;48.35;22.08;;;;;;;;;;6098799;23;20007;-96
2021/12/07 03:29:50;;;;;;;44.50;19.77;;;;;;;;;;6066081;23;20029;-96
2021/12/07 03:32:17;;;;;;;45.42;21.38;;;;;;;;;;6091551;23;20023;-96
2021/12/07 03:34:44;;;;;;;44.05;20.55;;;;;;;;;;6062351;23;20050;-96
2021/12/07 03:37:10;;;;;;;44.20;20.98;;;;;;;;;;6088975;23;20093;-96
2021/12/07 03:39:37;;;;;;;42.33;19.40;;;;;;;;;;6087660;23;20026;-96
2021/12/07 03:42:04;;;;;;;42.95;18.92;;;;;;;;;;6057974;23;20097;-96
2021/12/07 03:44:31;;;;;;;39.85;19.25;;;;;;;;;;6059978;23;20018;-96
2021/12/07 03:46:57;;;;;;;42.67;19.13;;;;;;;;;;6054959;23;20022;-96
2021/12/07 03:49:23;;;;;;;37.95;17.85;;;;;;;;;;6057473;23;20096;-96
2021/12/07 03:51:49;;;;;;;41.67;18.75;;;;;;;;;;6055201;23;20103;-96
2021/12/07 03:54:15;;;;;;;42.72;19.83;;;;;;;;;;6052038;23;20018;-96
2021/12/07 03:56:42;;;;;;;40.78;18.95;;;;;;;;;;6053568;23;20081;-96
2021/12/07 03:59:08;;;;;;;41.88;18.10;;;;;;;;;;6057759;23;20019;-96
2021/12/07 04:01:34;;;;;;;38.75;18.20;;;;;;;;;;6081075;23;20101;-96
2021/12/07 04:04:02;;;;;;;40.42;19.02;;;;;;;;;;6028258;23;20026;-96
2021/12/07 04:06:29;;;;;;;39.05;18.38;;;;;;;;;;6046681;23;20102;-96
2021/12/07 04:08:55;;;;;;;36.83;17.58;;;;;;;;;;6048613;23;20487;-96
2021/12/07 04:11:21;;;;;;;38.83;18.45;;;;;;;;;;6047218;23;20474;-96
2021/12/07 04:13:47;;;;;;;37.83;17.42;;;;;;;;;;6052928;23;20057;-96
2021/12/07 04:16:17;;;;;;;37.15;17.42;;;;;;;;;;6078623;23;20030;-96
2021/12/07 04:18:43;;;;;;;37.30;18.15;;;;;;;;;;6049116;23;20029;-96
2021/12/07 04:21:09;;;;;;;40.55;18.27;;;;;;;;;;6048219;23;20018;-96
2021/12/07 04:23:36;;;;;;;40.90;18.75;;;;;;;;;;6070581;23;20023;-96
2021/12/07 04:26:03;;;;;;;38.33;17.17;;;;;;;;;;6044473;23;20023;-96
2021/12/07 04:28:29;;;;;;;35.60;16.40;;;;;;;;;;6045052;23;20509;-96
2021/12/07 04:30:55;;;;;;;35.83;17.17;;;;;;;;;;6046704;23;20018;-96
2021/12/07 04:33:21;;;;;;;37.72;16.60;;;;;;;;;;6048632;23;20018;-96
2021/12/07 04:35:49;;;;;;;32.97;15.57;;;;;;;;;;6048219;23;20018;-96
2021/12/07 04:38:15;;;;;;;38.72;16.05;;;;;;;;;;6047079;23;20096;-96
2021/12/07 04:40:42;;;;;;;37.75;15.57;;;;;;;;;;6046314;23;20025;-96
2021/12/07 04:43:08;;;;;;;31.20;16.13;;;;;;;;;;6048673;23;20019;-95
2021/12/07 04:58:32;;;;;;;27.80;13.65;;;;;;;;;;6071964;23;20026;-96
2021/12/07 05:00:59;;;;;;;25.52;12.70;;;;;;;;;;6047574;23;20089;-96
2021/12/07 05:03:28;;;;;;;28.95;13.23;;;;;;;;;;6048471;23;20525;-96
2021/12/07 05:05:55;;;;;;;25.92;13.27;;;;;;;;;;6048721;23;20018;-96
2021/12/07 05:08:35;;;;;;;28.75;14.70;;;;;;;;;;6046062;23;20062;-95
2021/12/07 05:11:25;;;;;;;35.47;15.27;;;;;;;;;;6046194;23;20024;-96
2021/12/07 05:16:40;;;;;;;31.30;14.38;;;;;;;;;;6095616;23;20028;-96
2021/12/07 05:24:49;;;;;;;31.50;13.45;;;;;;;;;;6070609;23;20097;-96
2021/12/07 05:38:13;;;;;;;28.08;13.05;;;;;;;;;;6074988;23;20026;-96
2021/12/07 05:40:39;;;;;;;31.60;13.60;;;;;;;;;;6073436;23;20019;-96
2021/12/07 05:43:05;;;;;;;30.88;14.23;;;;;;;;;;6051991;23;20029;-96
2021/12/07 05:45:36;;;;;;;31.83;14.25;;;;;;;;;;6050097;23;20026;-96
2021/12/07 05:48:03;;;;;;;31.55;13.75;;;;;;;;;;6056886;23;20022;-96
2021/12/07 05:50:42;;;;;;;33.03;13.50;;;;;;;;;;6047098;23;20018;-96
2021/12/07 05:56:50;;;;;;;28.80;12.88;;;;;;;;;;6009096;23;20012;-86
2021/12/07 05:59:17;;;;;;;29.50;13.10;;;;;;;;;;5950979;24;20024;-96
2021/12/07 06:01:43;;;;;;;29.63;12.38;;;;;;;;;;5938425;24;20016;-96
2021/12/07 06:04:09;;;;;;;25.98;12.55;;;;;;;;;;5940188;24;20190;-95
2021/12/07 06:06:35;;;;;;;31.52;12.00;;;;;;;;;;5939060;24;20028;-96
2021/12/07 06:09:01;;;;;;;31.70;13.35;;;;;;;;;;5936182;24;20037;-96
2021/12/07 06:11:28;;;;;;;37.13;13.40;;;;;;;;;;5967983;24;20098;-96
2021/12/07 06:17:19;;;;;;;32.28;12.20;;;;;;;;;;5988809;24;20027;-96
2021/12/07 06:19:51;;;;;;;31.20;12.82;;;;;;;;;;5941939;24;20024;-96
2021/12/07 06:22:17;;;;;;;43.15;21.17;;;;;;;;;;5957149;24;20012;-96
2021/12/07 06:25:00;;;;;;;299.67;191.38;;;;;;;;;;5977877;23;20031;-96
2021/12/07 06:27:26;;;;;;;46.15;23.38;;;;;;;;;;5949658;24;20031;-96
2021/12/07 06:29:52;;;;;;;55.17;30.33;;;;;;;;;;5938811;24;20024;-96
2021/12/07 06:32:19;;;;;;;46.97;18.40;;;;;;;;;;5975927;23;20034;-96
2021/12/07 06:34:53;;;;;;;97.03;61.00;;;;;;;;;;6013859;23;20056;-96
2021/12/07 06:37:50;;;;;;;62.15;36.85;;;;;;;;;;6033602;23;20047;-96
2021/12/07 07:00:06;;;;;;;42.25;14.65;;;;;;;;;;6038432;23;20055;-96
2021/12/07 07:12:36;;;;;;;39.35;15.25;;;;;;;;;;6106323;23;20026;-96
2021/12/07 07:15:03;;;;;;;31.38;13.90;;;;;;;;;;6046602;23;20018;-96
2021/12/07 07:17:29;;;;;;;33.05;14.35;;;;;;;;;;6045465;23;20021;-96
2021/12/07 07:19:55;;;;;;;34.15;14.00;;;;;;;;;;6046872;23;20018;-96
2021/12/07 07:22:21;;;;;;;31.33;16.15;;;;;;;;;;6044978;23;20015;-96
2021/12/07 07:25:26;;;;;;;332.17;116.60;;;;;;;;;;6058041;23;20027;-96
2021/12/07 07:28:11;;;;;;;53.88;25.50;;;;;;;;;;6075039;23;20011;-96
2021/12/07 07:30:37;;;;;;;49.10;22.15;;;;;;;;;;6044255;23;20487;-94
2021/12/07 07:33:03;;;;;;;52.65;31.20;;;;;;;;;;6043632;23;20572;-95
2021/12/07 07:35:29;;;;;;;55.08;24.70;;;;;;;;;;6043214;23;20015;-94
2021/12/07 07:37:55;;;;;;;47.53;23.77;;;;;;;;;;6043702;23;20018;-96
2021/12/07 07:40:22;;;;;;;48.42;22.20;;;;;;;;;;6043817;23;20021;-95
2021/12/07 07:42:48;;;;;;;47.90;23.23;;;;;;;;;;6044424;23;20054;-95
2021/12/07 07:45:15;;;;;;;51.72;24.13;;;;;;;;;;6045587;23;20029;-96
2021/12/07 07:47:42;;;;;;;65.90;24.23;;;;;;;;;;6059462;23;20026;-96
2021/12/07 07:50:09;;;;;;;47.53;20.05;;;;;;;;;;6061855;23;20014;-96
2021/12/07 07:52:40;;;;;;;51.00;21.40;;;;;;;;;;6055471;23;20395;-96
2021/12/07 07:55:07;;;;;;;37.00;14.40;;;;;;;;;;6055934;23;20074;-96
2021/12/07 07:57:33;;;;;;;45.72;17.98;;;;;;;;;;6059592;23;20019;-96
2021/12/07 07:59:59;;;;;;;36.70;14.73;;;;;;;;;;6056663;23;20043;-96
2021/12/07 08:02:28;;;;;;;42.83;14.82;;;;;;;;;;6084413;23;20019;-96
2021/12/07 08:04:57;;;;;;;30.40;12.23;;;;;;;;;;6045372;23;20161;-96
2021/12/07 08:07:24;;;;;;;35.58;12.57;;;;;;;;;;6055481;23;20021;-96
2021/12/07 08:09:53;;;;;;;41.00;12.75;;;;;;;;;;6034274;23;20023;-96
2021/12/07 08:12:20;;;;;;;39.88;12.63;;;;;;;;;;6054301;23;20010;-96
2021/12/07 08:14:49;;;;;;;39.13;13.93;;;;;;;;;;6056309;23;20071;-96
2021/12/07 08:17:15;;;;;;;46.95;14.40;;;;;;;;;;6037566;23;20019;-96
2021/12/07 08:19:46;;;;;;;35.85;13.30;;;;;;;;;;6058038;23;20455;-96
2021/12/07 08:22:36;;;;;;;38.10;14.10;;;;;;;;;;5990403;23;20030;-96
2021/12/07 08:25:06;;;;;;;43.42;15.30;;;;;;;;;;6037048;23;20046;-96
2021/12/07 08:27:32;;;;;;;43.28;15.90;;;;;;;;;;6034587;23;20019;-96
2021/12/07 08:30:01;;;;;;;59.22;32.42;;;;;;;;;;6038183;23;20018;-96
2021/12/07 08:32:30;;;;;;;44.40;21.02;;;;;;;;;;6017596;23;20074;-96
2021/12/07 08:35:20;;;;;;;40.60;17.42;;;;;;;;;;6058413;23;20015;-96
2021/12/07 08:38:10;;;;;;;42.53;13.70;;;;;;;;;;6053324;23;20006;-93
2021/12/07 08:41:12;;;;;;;35.95;13.10;;;;;;;;;;5967534;24;20024;-96
2021/12/07 08:43:41;;;;;;;50.90;14.32;;;;;;;;;;5976491;24;20024;-96
2021/12/07 08:46:40;;;;;;;41.40;13.80;;;;;;;;;;5987738;24;20023;-96
2021/12/07 08:49:55;;;;;;;69.25;14.90;;;;;;;;;;5919561;24;20017;-96
2021/12/07 08:53:03;;;;;;;43.25;15.27;;;;;;;;;;5877503;24;20059;-96
2021/12/07 09:01:19;;;;;;;71.50;14.90;;;;;;;;;;5915142;24;20025;-96
2021/12/07 09:03:46;;;;;;;80.00;16.35;;;;;;;;;;5882843;24;20086;-96
2021/12/07 09:06:12;;;;;;;44.55;14.95;;;;;;;;;;5857858;24;20056;-95
2021/12/07 09:08:40;;;;;;;151.25;19.33;;;;;;;;;;5881702;24;20021;-96
2021/12/07 09:11:21;;;;;;;50.75;14.60;;;;;;;;;;5901227;24;20017;-96
2021/12/07 09:13:47;;;;;;;41.17;12.35;;;;;;;;;;5887543;24;20037;-96
2021/12/07 09:16:18;;;;;;;39.83;12.45;;;;;;;;;;5912785;24;20052;-96
2021/12/07 09:18:44;;;;;;;33.45;11.50;;;;;;;;;;5955884;24;20008;-96
2021/12/07 09:21:11;;;;;;;39.10;12.73;;;;;;;;;;5992191;24;20116;-96
2021/12/07 09:23:41;;;;;;;42.30;15.85;;;;;;;;;;5993627;24;20056;-96
2021/12/07 09:26:26;;;;;;;40.17;13.85;;;;;;;;;;6058319;23;20478;-96
2021/12/07 09:28:52;;;;;;;44.03;12.82;;;;;;;;;;6059870;23;20018;-96
2021/12/07 09:31:22;;;;;;;33.00;12.68;;;;;;;;;;6081356;23;20090;-96
2021/12/07 09:33:52;;;;;;;31.00;12.00;;;;;;;;;;6063659;23;20021;-96
2021/12/07 09:36:25;;;;;;;36.35;13.18;;;;;;;;;;6080741;23;20266;-96
2021/12/07 09:39:06;;;;;;;36.00;13.88;;;;;;;;;;6115244;23;20030;-96
2021/12/07 09:41:36;;;;;;;29.75;11.23;;;;;;;;;;6057624;23;20455;-96
2021/12/07 09:44:03;;;;;;;36.83;11.70;;;;;;;;;;6051912;23;20089;-96
2021/12/07 09:46:29;;;;;;;30.00;11.30;;;;;;;;;;6052311;23;20068;-96
2021/12/07 09:48:55;;;;;;;1544.55;202.25;;;;;;;;;;6048130;23;20040;-96
2021/12/07 09:51:22;;;;;;;405.25;35.63;;;;;;;;;;6046745;23;20021;-96
2021/12/07 09:53:49;;;;;;;192.98;26.08;;;;;;;;;;6092268;23;20092;-94
2021/12/07 09:56:16;;;;;;;146.50;23.38;;;;;;;;;;6044885;23;20141;-94
2021/12/07 09:58:42;;;;;;;1219.35;189.48;;;;;;;;;;6043837;23;20459;-96
2021/12/07 10:01:09;;;;;;;1589.18;239.07;;;;;;;;;;6091998;23;20014;-95
2021/12/07 10:03:36;;;;;;;354.75;43.05;;;;;;;;;;6044509;23;20022;-94
2021/12/07 10:06:02;;;;;;;309.27;64.53;;;;;;;;;;6044075;23;20467;-96
2021/12/07 10:08:28;;;;;;;147.75;37.05;;;;;;;;;;6093524;23;20029;-94
2021/12/07 10:10:56;;;;;;;85.20;25.42;;;;;;;;;;6044091;23;20022;-95
2021/12/07 10:13:24;;;;;;;1197.63;112.00;;;;;;;;;;6044279;23;20410;-94
2021/12/07 10:15:50;;;;;;;43.45;15.48;;;;;;;;;;6043394;23;20116;-95
2021/12/07 10:18:27;;;;;;;319.30;36.50;;;;;;;;;;6044463;23;20030;-96
2021/12/07 10:21:01;;;;;;;46.08;14.93;;;;;;;;;;6044024;23;20037;-95
2021/12/07 10:23:36;;;;;;;33.97;12.23;;;;;;;;;;6044342;23;20018;-94
2021/12/07 10:26:08;;;;;;;37.92;15.18;;;;;;;;;;6043479;23;20018;-95
2021/12/07 10:28:38;;;;;;;27.00;11.82;;;;;;;;;;6043555;23;20026;-95
2021/12/07 10:31:15;;;;;;;27.48;9.98;;;;;;;;;;6043793;23;20443;-94
2021/12/07 10:33:43;;;;;;;38.63;10.25;;;;;;;;;;6043916;23;20015;-93
2021/12/07 10:36:14;;;;;;;24.30;9.65;;;;;;;;;;6043815;23;20026;-92
2021/12/07 10:38:41;;;;;;;28.45;9.25;;;;;;;;;;6044060;23;20021;-93
2021/12/07 10:41:08;;;;;;;26.95;8.65;;;;;;;;;;6044040;23;20026;-94
2021/12/07 10:43:41;;;;;;;20.38;9.05;;;;;;;;;;6043535;23;20018;-94
2021/12/07 10:46:27;;;;;;;61.70;15.38;;;;;;;;;;6043903;23;20030;-94
2021/12/07 10:49:12;;;;;;;364.80;32.13;;;;;;;;;;6024230;23;20137;-93
2021/12/07 10:51:38;;;;;;;37.67;11.38;;;;;;;;;;6091950;23;20023;-91
2021/12/07 10:54:05;;;;;;;28.08;9.70;;;;;;;;;;6043500;23;20077;-93
2021/12/07 10:56:32;;;;;;;28.70;9.93;;;;;;;;;;6091705;23;20014;-92
2021/12/07 10:59:02;;;;;;;115.90;14.48;;;;;;;;;;6091173;23;20412;-96
2021/12/07 11:01:49;;;;;;;28.70;9.50;;;;;;;;;;6091882;23;20018;-93
2021/12/07 11:04:24;;;;;;;160.65;16.40;;;;;;;;;;6091863;23;20054;-92
2021/12/07 11:07:09;;;;;;;18.27;8.02;;;;;;;;;;6043366;23;20093;-94
2021/12/07 11:10:03;;;;;;;299.17;22.17;;;;;;;;;;6049629;23;20050;-96
2021/12/07 11:12:35;;;;;;;566.17;42.22;;;;;;;;;;6073592;23;20077;-96
2021/12/07 11:15:01;;;;;;;29.38;9.52;;;;;;;;;;6071641;23;20439;-96
2021/12/07 11:17:29;;;;;;;19.52;8.25;;;;;;;;;;6043789;23;20061;-94
2021/12/07 11:19:56;;;;;;;86.95;12.38;;;;;;;;;;6091586;23;20026;-95
2021/12/07 11:22:24;;;;;;;161.65;20.48;;;;;;;;;;6094180;23;20019;-95
2021/12/07 11:24:52;;;;;;;28.83;9.02;;;;;;;;;;6091837;23;20036;-94
2021/12/07 11:30:05;;;;;;;20.38;7.03;;;;;;;;;;6076548;23;20033;-96
2021/12/07 11:32:32;;;;;;;19.15;7.80;;;;;;;;;;6049148;23;20046;-96
2021/12/07 11:35:10;;;;;;;16.90;6.88;;;;;;;;;;6047559;23;20025;-96
2021/12/07 11:37:37;;;;;;;16.60;7.57;;;;;;;;;;6047413;23;20104;-94
2021/12/07 11:40:06;;;;;;;17.92;6.93;;;;;;;;;;6098976;23;20022;-96
2021/12/07 11:42:36;;;;;;;12.13;6.57;;;;;;;;;;6051149;23;20018;-96
2021/12/07 11:45:02;;;;;;;15.32;7.07;;;;;;;;;;6051134;23;20028;-96
2021/12/07 11:47:33;;;;;;;14.73;7.00;;;;;;;;;;6050376;23;20042;-96
2021/12/07 11:50:10;;;;;;;20.60;7.90;;;;;;;;;;6049324;23;20014;-96
2021/12/07 11:52:36;;;;;;;20.30;8.10;;;;;;;;;;6047317;23;20018;-96
2021/12/07 11:55:07;;;;;;;17.13;7.50;;;;;;;;;;6070750;23;20014;-94
2021/12/07 11:57:34;;;;;;;23.52;7.60;;;;;;;;;;6045300;23;20016;-93
2021/12/07 12:00:00;;;;;;;63.88;27.60;;;;;;;;;;6045547;23;20089;-95
2021/12/07 12:02:26;;;;;;;56.85;34.92;;;;;;;;;;6045313;23;20010;-93
2021/12/07 12:04:52;;;;;;;29.70;14.73;;;;;;;;;;6044962;23;20018;-95
2021/12/07 12:07:21;;;;;;;23.38;11.40;;;;;;;;;;6045223;23;20097;-96
2021/12/07 12:09:48;;;;;;;21.98;7.95;;;;;;;;;;6044947;23;20025;-94
2021/12/07 12:12:23;;;;;;;20.40;10.43;;;;;;;;;;6044773;23;20022;-95
2021/12/07 12:15:07;;;;;;;21.00;9.30;;;;;;;;;;6045364;23;20109;-95
2021/12/07 12:17:52;;;;;;;21.75;8.55;;;;;;;;;;6045152;23;20548;-94
2021/12/07 12:20:35;;;;;;;20.40;10.15;;;;;;;;;;6045347;23;20018;-96
2021/12/07 12:23:15;;;;;;;20.40;8.93;;;;;;;;;;6044979;23;20472;-94
2021/12/07 12:25:41;;;;;;;23.33;8.18;;;;;;;;;;6044520;23;20538;-95
2021/12/07 12:28:08;;;;;;;25.10;10.00;;;;;;;;;;6045112;23;20022;-93
2021/12/07 12:30:39;;;;;;;24.48;8.68;;;;;;;;;;6046034;23;20018;-96
2021/12/07 12:33:07;;;;;;;25.65;9.57;;;;;;;;;;6045378;23;20022;-96
2021/12/07 12:35:42;;;;;;;106.20;13.68;;;;;;;;;;6047262;23;20014;-96
2021/12/07 12:38:23;;;;;;;51.75;10.77;;;;;;;;;;6047636;23;20019;-96
2021/12/07 12:40:58;;;;;;;20.65;9.00;;;;;;;;;;6047415;23;20029;-96
2021/12/07 12:43:54;;;;;;;19.27;8.82;;;;;;;;;;6065241;23;20002;-96
2021/12/07 12:46:41;;;;;;;22.40;9.27;;;;;;;;;;6008876;23;20119;-96
2021/12/07 12:49:15;;;;;;;20.30;9.73;;;;;;;;;;5977798;23;20028;-96
2021/12/07 12:51:55;;;;;;;46.35;11.68;;;;;;;;;;6008897;23;20084;-96
2021/12/07 12:54:47;;;;;;;23.88;8.98;;;;;;;;;;6029627;23;20024;-96
2021/12/07 12:57:56;;;;;;;20.73;9.45;;;;;;;;;;6004989;23;20020;-96
2021/12/07 13:10:58;;;;;;;18.38;9.10;;;;;;;;;;5904627;24;20046;-96
2021/12/07 13:13:38;;;;;;;23.90;9.30;;;;;;;;;;5936104;24;20021;-96
2021/12/07 13:16:14;;;;;;;27.10;9.60;;;;;;;;;;5946417;24;20064;-96
2021/12/07 13:18:41;;;;;;;22.35;9.10;;;;;;;;;;5945268;24;20080;-96
2021/12/07 13:21:25;;;;;;;25.02;9.23;;;;;;;;;;5954993;24;20028;-96
2021/12/07 13:24:08;;;;;;;23.95;9.48;;;;;;;;;;6027993;23;20004;-97
2021/12/07 13:26:45;;;;;;;28.15;9.93;;;;;;;;;;6026013;23;20038;-96
2021/12/07 13:29:18;;;;;;;21.95;9.95;;;;;;;;;;5999070;23;20015;-96
2021/12/07 13:31:47;;;;;;;21.73;9.35;;;;;;;;;;5972431;23;20119;-96
2021/12/07 13:34:18;;;;;;;29.15;10.55;;;;;;;;;;6000745;23;20023;-96
2021/12/07 13:36:54;;;;;;;27.30;10.77;;;;;;;;;;5999724;23;20031;-96
2021/12/07 13:39:34;;;;;;;22.77;9.50;;;;;;;;;;6082479;23;20049;-96
2021/12/07 13:42:06;;;;;;;22.83;10.17;;;;;;;;;;6060754;23;20018;-96
2021/12/07 13:44:35;;;;;;;21.92;9.73;;;;;;;;;;6059737;23;20105;-96
2021/12/07 13:47:06;;;;;;;23.58;11.23;;;;;;;;;;6083567;23;20049;-96
2021/12/07 13:49:35;;;;;;;27.60;11.48;;;;;;;;;;6062902;23;20022;-96
2021/12/07 13:52:02;;;;;;;26.85;10.98;;;;;;;;;;6090679;23;20026;-96
2021/12/07 13:54:32;;;;;;;30.80;11.35;;;;;;;;;;6110992;23;20093;-96
2021/12/07 13:57:02;;;;;;;26.55;11.00;;;;;;;;;;6081410;23;20019;-96
2021/12/07 13:59:27;;;;;;;24.85;10.20;;;;;;;;;;6079043;23;20014;-96
2021/12/07 14:01:56;;;;;;;24.80;11.65;;;;;;;;;;6062550;23;20074;-96
2021/12/07 14:04:26;;;;;;;30.33;12.85;;;;;;;;;;6079108;23;20455;-96
2021/12/07 14:06:52;;;;;;;27.00;12.23;;;;;;;;;;6061613;23;20106;-96
2021/12/07 14:09:22;;;;;;;26.77;12.35;;;;;;;;;;6111416;23;20478;-96
2021/12/07 14:12:00;;;;;;;35.08;13.25;;;;;;;;;;6058802;23;20018;-96
2021/12/07 14:14:28;;;;;;;32.45;13.35;;;;;;;;;;6052421;23;20025;-96
2021/12/07 14:16:59;;;;;;;32.05;13.52;;;;;;;;;;6051886;23;20347;-96
2021/12/07 14:19:25;;;;;;;29.55;12.75;;;;;;;;;;6052371;23;20029;-96
2021/12/07 14:21:52;;;;;;;32.78;13.27;;;;;;;;;;6073706;23;20021;-96
2021/12/07 14:24:20;;;;;;;35.42;13.98;;;;;;;;;;6058182;23;20029;-96
2021/12/07 14:26:49;;;;;;;31.55;14.43;;;;;;;;;;6084014;23;20014;-96
2021/12/07 14:29:24;;;;;;;38.10;15.05;;;;;;;;;;6082539;23;20018;-96
2021/12/07 14:32:10;;;;;;;33.13;14.50;;;;;;;;;;6054438;23;20025;-96
2021/12/07 14:34:45;;;;;;;30.27;15.27;;;;;;;;;;6065187;23;20019;-96
2021/12/07 14:37:12;;;;;;;34.60;15.90;;;;;;;;;;6056588;23;20026;-96
2021/12/07 14:39:39;;;;;;;36.47;16.02;;;;;;;;;;6050610;23;20018;-96
2021/12/07 14:42:13;;;;;;;36.80;15.30;;;;;;;;;;6044684;23;20019;-96
2021/12/07 14:44:43;;;;;;;43.90;17.70;;;;;;;;;;6044726;23;20025;-95
2021/12/07 14:47:10;;;;;;;41.60;17.85;;;;;;;;;;6044874;23;20351;-96
2021/12/07 14:49:38;;;;;;;41.10;17.98;;;;;;;;;;6044545;23;20025;-95
2021/12/07 14:52:15;;;;;;;33.38;17.85;;;;;;;;;;6044407;23;20474;-95
2021/12/07 14:54:42;;;;;;;39.58;18.17;;;;;;;;;;6044942;23;20023;-96
2021/12/07 14:57:08;;;;;;;42.10;18.65;;;;;;;;;;6021288;23;20019;-96
2021/12/07 14:59:38;;;;;;;42.17;18.85;;;;;;;;;;6057888;23;20383;-96
2021/12/07 15:02:05;;;;;;;45.08;19.45;;;;;;;;;;6056905;23;20097;-96
2021/12/07 15:04:31;;;;;;;44.15;19.27;;;;;;;;;;6106558;23;20014;-96
2021/12/07 15:07:03;;;;;;;42.97;19.02;;;;;;;;;;6058144;23;20104;-96
2021/12/07 15:09:34;;;;;;;41.72;18.80;;;;;;;;;;6058196;23;20082;-96
2021/12/07 15:12:00;;;;;;;57.35;19.17;;;;;;;;;;6057994;23;20019;-96
2021/12/07 15:14:41;;;;;;;43.47;19.10;;;;;;;;;;6027990;23;20020;-96
2021/12/07 15:17:08;;;;;;;47.22;19.05;;;;;;;;;;6043691;23;20034;-96
2021/12/07 15:19:37;;;;;;;44.67;18.67;;;;;;;;;;6018313;23;20151;-96
2021/12/07 15:22:06;;;;;;;44.55;19.63;;;;;;;;;;6023865;23;20019;-96
2021/12/07 15:24:38;;;;;;;48.35;18.90;;;;;;;;;;6032608;23;20015;-96
2021/12/07 15:34:18;;;;;;;37.45;17.05;;;;;;;;;;6063722;23;20107;-96
2021/12/07 15:41:26;;;;;;;39.65;17.20;;;;;;;;;;6063559;23;20005;-96
2021/12/07 16:05:56;;;;;;;32.92;15.30;;;;;;;;;;6096673;23;20050;-90
2021/12/07 16:09:36;;;;;;;37.42;15.98;;;;;;;;;;6095177;23;20042;-88
2021/12/07 16:12:16;;;;;;;40.08;16.15;;;;;;;;;;6067410;23;20093;-95
2021/12/07 16:14:48;;;;;;;40.72;16.42;;;;;;;;;;6040147;23;19999;-96
2021/12/07 16:17:19;;;;;;;38.60;16.58;;;;;;;;;;6087578;23;20046;-96
2021/12/07 16:19:45;;;;;;;42.70;16.35;;;;;;;;;;6034051;23;20019;-96
2021/12/07 16:22:12;;;;;;;38.72;15.50;;;;;;;;;;6023488;23;20022;-96
2021/12/07 16:24:38;;;;;;;46.42;17.52;;;;;;;;;;6021263;23;20019;-96
2021/12/07 16:27:04;;;;;;;36.97;16.83;;;;;;;;;;6020081;23;20025;-96
2021/12/07 16:29:30;;;;;;;37.95;16.20;;;;;;;;;;6022569;23;20547;-96
2021/12/07 16:32:00;;;;;;;42.35;16.67;;;;;;;;;;6022112;23;20015;-96
2021/12/07 16:34:26;;;;;;;43.10;17.65;;;;;;;;;;6022840;23;20344;-96
2021/12/07 16:36:52;;;;;;;44.13;16.77;;;;;;;;;;6052521;23;20090;-96
2021/12/07 16:39:18;;;;;;;40.70;17.80;;;;;;;;;;6048225;23;20019;-96
2021/12/07 16:41:44;;;;;;;42.58;16.25;;;;;;;;;;6069853;23;20022;-96
2021/12/07 16:44:11;;;;;;;38.05;17.00;;;;;;;;;;6053070;23;20019;-96
2021/12/07 16:46:37;;;;;;;45.30;18.30;;;;;;;;;;6042570;23;20015;-96
2021/12/07 16:49:04;;;;;;;41.25;16.42;;;;;;;;;;6046591;23;20023;-96
2021/12/07 16:51:31;;;;;;;38.38;16.67;;;;;;;;;;6042741;23;20050;-96
2021/12/07 16:53:59;;;;;;;39.90;17.23;;;;;;;;;;6042421;23;20055;-96
2021/12/07 16:56:28;;;;;;;47.40;18.73;;;;;;;;;;6067493;23;20093;-96
2021/12/07 16:58:54;;;;;;;44.90;19.10;;;;;;;;;;6073761;23;20459;-96
2021/12/07 17:01:20;;;;;;;50.60;19.77;;;;;;;;;;6041901;23;20114;-96
2021/12/07 17:03:47;;;;;;;54.05;21.13;;;;;;;;;;6050691;23;20114;-96
2021/12/07 17:06:14;;;;;;;55.42;22.10;;;;;;;;;;6048666;23;20029;-96
2021/12/07 17:08:41;;;;;;;52.80;21.80;;;;;;;;;;6056444;23;20023;-96
2021/12/07 17:11:08;;;;;;;55.08;21.45;;;;;;;;;;6075367;23;20526;-96
2021/12/07 17:13:35;;;;;;;47.38;22.45;;;;;;;;;;6057969;23;20051;-96
2021/12/07 17:16:08;;;;;;;53.78;24.45;;;;;;;;;;6076773;23;20022;-96
2021/12/07 17:18:35;;;;;;;52.15;24.27;;;;;;;;;;6051489;23;20023;-95
2021/12/07 17:21:02;;;;;;;49.40;23.20;;;;;;;;;;6043353;23;20046;-96
2021/12/07 17:23:29;;;;;;;61.28;25.35;;;;;;;;;;6058278;23;20034;-96
2021/12/07 17:25:56;;;;;;;56.85;25.17;;;;;;;;;;6051919;23;20019;-96
2021/12/07 17:28:22;;;;;;;62.33;25.40;;;;;;;;;;6064346;23;20074;-96
2021/12/07 17:30:48;;;;;;;53.58;25.60;;;;;;;;;;6060452;23;20026;-96
2021/12/07 17:33:15;;;;;;;65.63;26.50;;;;;;;;;;6054648;23;20054;-96
2021/12/07 17:35:41;;;;;;;57.88;24.80;;;;;;;;;;6055938;23;20025;-96
2021/12/07 17:40:58;;;;;;;70.10;26.92;;;;;;;;;;6073378;23;20019;-96
2021/12/07 17:43:25;;;;;;;59.05;26.40;;;;;;;;;;6071276;23;20486;-96